KGPT/GPT METAR and TAF weather

Enter ICAO airport designator
Station Type Date Time Source
KGPT METAR 2019/11/18 13:53 UTC NOAA

KGPT 181353Z 32003KT 10SM CLR 08/04 A2996 RMK AO2 SLP144 T00780039


Station Type Date Time Source
KGPT Decoded METAR 2019/11/18 13:53 UTC NOAA

GULFPORT-BILOXI REG AIRPORT , MS, United States (KGPT) 30-25N 089-05W 14M
Nov 18, 2019 - 08:53 AM EST / 2019.11.18 1353 UTC
Wind: from the NW (320 degrees) at 3 MPH (3 KT):0
Visibility: 10 mile(s):0
Sky conditions: clear
Temperature: 46.0 F (7.8 C)
Dew Point: 39.0 F (3.9 C)
Relative Humidity: 76%
Pressure (altimeter): 29.96 in. Hg (1014 hPa)
ob: KGPT 181353Z 32003KT 10SM CLR 08/04 A2996 RMK AO2 SLP144 T00780039
cycle: 14

Station Type Date Time Source
KGPT TAF 2019/11/18 12:30 UTC NOAA

TAF KGPT 181127Z 1812/1912 VRB04KT P6SM SKC
FM181800 31006KT P6SM SKC
FM182000 28006KT P6SM SKC
FM190900 VRB03KT P6SM SKC

Example: see airport list